Time;durP1;ratioP1;P1;durP2;ratioP2;P2;SDS_P1;SDS_P2;PMS_P1;PMS_P2;Temp;Humidity;BMP_temperature;BMP_pressure;BME280_temperature;BME280_humidity;BME280_pressure;Samples;Min_cycle;Max_cycle;Signal;HPM_P1;HPM_P2
2022/02/23 00:00:18;;;;;;;44.27;8.70;;;5.80;89.80;;;;;;5037176;28;20199;-91
2022/02/23 00:02:44;;;;;;;51.97;10.37;;;5.80;89.90;;;;;;5037090;28;20211;-91
2022/02/23 00:05:09;;;;;;;53.17;10.30;;;5.80;89.90;;;;;;5037506;28;20180;-91
2022/02/23 00:07:35;;;;;;;50.13;10.90;;;5.80;89.80;;;;;;5038165;28;20287;-91
2022/02/23 00:10:01;;;;;;;36.83;10.13;;;5.80;89.80;;;;;;5037996;28;20538;-92
2022/02/23 00:12:26;;;;;;;53.90;11.50;;;5.80;89.90;;;;;;5038919;28;20638;-91
2022/02/23 00:14:52;;;;;;;47.53;9.37;;;5.90;89.90;;;;;;5036996;28;20208;-92
2022/02/23 00:17:24;;;;;;;57.33;9.90;;;5.80;89.80;;;;;;5038806;28;20211;-92
2022/02/23 00:19:51;;;;;;;38.23;9.10;;;5.80;90.00;;;;;;5043789;28;20266;-92
2022/02/23 00:22:16;;;;;;;57.03;10.67;;;5.80;90.00;;;;;;5041162;28;20604;-93
2022/02/23 00:24:42;;;;;;;31.43;7.33;;;5.90;90.00;;;;;;5041262;28;20191;-93
2022/02/23 00:27:07;;;;;;;41.63;10.00;;;5.80;90.20;;;;;;5042774;28;20198;-92
2022/02/23 00:29:35;;;;;;;39.70;7.63;;;5.90;90.10;;;;;;5040331;28;20180;-92
2022/02/23 00:32:04;;;;;;;72.20;12.40;;;6.00;90.00;;;;;;5039839;28;20253;-92
2022/02/23 00:34:29;;;;;;;47.37;10.13;;;6.00;89.70;;;;;;5039848;28;20183;-92
2022/02/23 00:36:55;;;;;;;41.03;8.20;;;6.00;89.70;;;;;;5040278;28;20210;-92
2022/02/23 00:39:24;;;;;;;45.90;9.00;;;6.00;89.80;;;;;;5041360;28;20199;-91
2022/02/23 00:41:50;;;;;;;44.87;9.70;;;6.00;89.70;;;;;;5037669;28;20163;-92
2022/02/23 00:44:16;;;;;;;54.30;9.97;;;6.00;89.60;;;;;;5040979;28;20199;-92
2022/02/23 00:46:42;;;;;;;47.13;10.03;;;6.00;89.60;;;;;;5040322;28;20199;-92
2022/02/23 00:49:08;;;;;;;57.37;10.80;;;6.10;89.40;;;;;;5040003;28;20207;-92
2022/02/23 00:51:33;;;;;;;61.37;10.67;;;6.00;89.50;;;;;;5042292;28;20219;-93
2022/02/23 00:53:59;;;;;;;60.17;10.97;;;6.00;89.60;;;;;;5041546;28;20188;-92
2022/02/23 00:56:25;;;;;;;40.37;9.40;;;6.10;89.50;;;;;;5042674;28;20232;-93
2022/02/23 00:58:51;;;;;;;52.27;9.03;;;6.10;89.10;;;;;;5043557;28;20290;-93
2022/02/23 01:01:17;;;;;;;50.97;8.77;;;6.30;88.80;;;;;;5038957;28;20180;-93
2022/02/23 01:03:43;;;;;;;49.07;9.73;;;6.20;88.80;;;;;;5040351;28;20196;-92
2022/02/23 01:06:09;;;;;;;37.97;7.93;;;6.20;88.90;;;;;;5039921;28;20168;-92
2022/02/23 01:08:35;;;;;;;37.90;7.40;;;6.20;88.70;;;;;;5038473;28;20294;-93
2022/02/23 01:11:00;;;;;;;42.30;7.67;;;6.20;88.80;;;;;;5044417;28;20623;-93
2022/02/23 01:13:27;;;;;;;41.37;8.53;;;6.20;88.70;;;;;;5040278;28;20180;-93
2022/02/23 01:15:53;;;;;;;34.87;7.97;;;6.20;88.70;;;;;;5042004;28;20230;-92
2022/02/23 01:18:19;;;;;;;36.13;7.83;;;6.20;88.90;;;;;;5041879;28;20248;-92
2022/02/23 01:20:44;;;;;;;40.00;10.07;;;6.30;88.90;;;;;;5036889;28;20647;-92
2022/02/23 01:23:10;;;;;;;34.57;8.20;;;6.20;88.80;;;;;;5037501;28;20176;-91
2022/02/23 01:25:35;;;;;;;42.30;8.07;;;6.30;88.30;;;;;;5040315;28;20187;-90
2022/02/23 01:28:04;;;;;;;38.73;9.40;;;6.30;88.10;;;;;;5041098;28;20211;-92
2022/02/23 01:30:30;;;;;;;45.73;7.50;;;6.30;88.40;;;;;;5038745;28;20202;-92
2022/02/23 01:32:56;;;;;;;40.47;7.63;;;6.20;88.40;;;;;;5039019;28;20175;-92
2022/02/23 01:35:22;;;;;;;39.60;8.73;;;6.20;88.40;;;;;;5036952;28;20187;-91
2022/02/23 01:37:48;;;;;;;52.60;9.00;;;6.10;88.60;;;;;;5040606;28;20234;-92
2022/02/23 01:40:14;;;;;;;38.10;6.73;;;6.10;88.50;;;;;;5036804;28;20183;-92
2022/02/23 01:42:41;;;;;;;52.37;8.97;;;6.00;88.50;;;;;;5035873;28;20183;-91
2022/02/23 01:45:08;;;;;;;35.57;8.13;;;6.00;88.50;;;;;;5034842;28;20181;-91
2022/02/23 01:47:33;;;;;;;43.67;7.83;;;6.00;88.80;;;;;;5035022;28;20672;-92
2022/02/23 01:49:59;;;;;;;52.87;9.10;;;6.00;88.70;;;;;;5034833;28;20182;-91
2022/02/23 01:52:25;;;;;;;40.77;9.47;;;6.00;88.70;;;;;;5035403;28;20172;-91
2022/02/23 01:54:55;;;;;;;51.13;8.90;;;5.90;88.80;;;;;;5033831;28;20175;-91
2022/02/23 01:57:21;;;;;;;40.53;10.13;;;5.90;89.00;;;;;;5034429;28;20196;-92
2022/02/23 01:59:47;;;;;;;40.20;8.30;;;5.90;89.00;;;;;;5034401;28;20194;-92
2022/02/23 02:02:12;;;;;;;57.03;9.47;;;5.90;88.90;;;;;;5034006;28;20171;-91
2022/02/23 02:04:38;;;;;;;52.93;8.97;;;5.90;89.00;;;;;;5034574;28;20211;-92
2022/02/23 02:07:04;;;;;;;43.17;8.60;;;5.90;89.10;;;;;;5034779;28;20234;-91
2022/02/23 02:09:29;;;;;;;51.40;8.97;;;5.80;89.20;;;;;;5034797;28;20180;-91
2022/02/23 02:11:55;;;;;;;55.97;10.47;;;5.80;89.20;;;;;;5034217;28;20274;-91
2022/02/23 02:14:21;;;;;;;45.20;9.20;;;5.90;89.20;;;;;;5033937;28;20183;-92
2022/02/23 02:16:47;;;;;;;44.50;9.10;;;5.80;89.20;;;;;;5035587;28;20207;-91
2022/02/23 02:19:13;;;;;;;35.30;7.10;;;5.80;89.20;;;;;;5034084;28;20204;-91
2022/02/23 02:21:58;;;;;;;43.53;10.67;;;5.90;89.20;;;;;;5034345;28;20180;-91
2022/02/23 02:24:30;;;;;;;35.03;8.43;;;6.00;89.10;;;;;;5034258;28;20536;-92
2022/02/23 02:26:57;;;;;;;32.97;6.73;;;6.00;89.00;;;;;;5034368;28;20247;-92
2022/02/23 02:29:23;;;;;;;40.33;8.53;;;6.00;88.80;;;;;;5033894;28;20257;-91
2022/02/23 02:31:49;;;;;;;61.00;9.37;;;6.00;88.80;;;;;;5034646;28;20534;-91
2022/02/23 02:34:15;;;;;;;46.23;9.77;;;6.00;88.80;;;;;;5033542;28;20180;-92
2022/02/23 02:36:42;;;;;;;44.73;7.63;;;6.10;88.60;;;;;;5033263;28;20206;-91
2022/02/23 02:39:09;;;;;;;45.27;10.53;;;6.00;88.60;;;;;;5034309;28;20789;-91
2022/02/23 02:41:35;;;;;;;39.67;8.57;;;6.00;88.40;;;;;;5033349;28;20316;-91
2022/02/23 02:44:02;;;;;;;19.40;5.80;;;6.10;88.30;;;;;;5033551;28;20169;-91
2022/02/23 02:46:28;;;;;;;45.47;8.23;;;6.20;88.20;;;;;;5034674;28;20176;-91
2022/02/23 02:48:53;;;;;;;24.17;5.73;;;6.20;88.00;;;;;;5034142;28;20226;-91
2022/02/23 02:51:20;;;;;;;27.37;7.53;;;6.20;88.00;;;;;;5034647;28;20544;-91
2022/02/23 02:53:45;;;;;;;33.97;7.30;;;6.20;87.90;;;;;;5033918;28;20221;-91
2022/02/23 02:56:11;;;;;;;34.27;7.17;;;6.20;88.00;;;;;;5034877;28;20193;-91
2022/02/23 02:58:36;;;;;;;34.37;7.77;;;6.10;88.10;;;;;;5034899;28;20192;-92
2022/02/23 03:01:02;;;;;;;37.10;8.23;;;6.20;87.90;;;;;;5034636;28;20220;-91
2022/02/23 03:03:28;;;;;;;43.13;8.83;;;6.10;87.70;;;;;;5034167;28;20184;-91
2022/02/23 03:05:54;;;;;;;48.13;9.10;;;6.00;87.80;;;;;;5033994;28;20202;-91
2022/02/23 03:08:19;;;;;;;31.47;7.07;;;6.10;87.90;;;;;;5033887;28;20207;-91
2022/02/23 03:10:45;;;;;;;32.80;7.27;;;6.10;87.80;;;;;;5033721;28;20646;-91
2022/02/23 03:13:10;;;;;;;44.97;8.17;;;6.20;87.30;;;;;;5034928;28;20185;-91
2022/02/23 03:15:37;;;;;;;36.37;7.70;;;6.20;87.00;;;;;;5034010;28;20279;-91
2022/02/23 03:18:03;;;;;;;43.83;8.67;;;6.20;87.10;;;;;;5035157;28;20243;-91
2022/02/23 03:20:29;;;;;;;31.47;7.07;;;6.20;87.10;;;;;;5033324;28;20173;-92
2022/02/23 03:22:55;;;;;;;39.43;8.43;;;6.20;87.00;;;;;;5033882;28;20183;-91
2022/02/23 03:25:20;;;;;;;34.93;7.70;;;6.20;87.10;;;;;;5034927;28;20184;-91
2022/02/23 03:27:46;;;;;;;34.20;7.90;;;6.20;87.00;;;;;;5034161;28;20203;-91
2022/02/23 03:30:13;;;;;;;32.37;6.87;;;6.20;86.60;;;;;;5034244;28;20247;-91
2022/02/23 03:32:39;;;;;;;34.00;7.07;;;6.20;86.20;;;;;;5036690;28;20306;-91
2022/02/23 03:35:06;;;;;;;35.37;7.50;;;6.20;86.30;;;;;;5037370;28;20263;-91
2022/02/23 03:37:31;;;;;;;30.03;6.47;;;6.20;85.90;;;;;;5036311;28;20211;-91
2022/02/23 03:39:59;;;;;;;35.43;7.27;;;6.20;85.80;;;;;;5037280;28;20246;-91
2022/02/23 03:42:25;;;;;;;31.37;7.27;;;6.20;85.90;;;;;;5036361;28;20176;-91
2022/02/23 03:44:51;;;;;;;20.07;5.63;;;6.20;85.80;;;;;;5037226;28;20182;-90
2022/02/23 03:47:17;;;;;;;24.30;5.20;;;6.20;85.50;;;;;;5037245;28;20173;-91
2022/02/23 03:49:43;;;;;;;31.80;6.40;;;6.20;84.90;;;;;;5038793;28;20257;-91
2022/02/23 03:52:09;;;;;;;18.20;4.07;;;6.20;84.80;;;;;;5037608;28;20181;-91
2022/02/23 03:54:34;;;;;;;38.67;6.37;;;6.20;84.80;;;;;;5037325;28;20268;-91
2022/02/23 03:57:00;;;;;;;33.43;6.77;;;6.20;84.70;;;;;;5037658;28;20195;-91
2022/02/23 03:59:27;;;;;;;38.50;6.37;;;6.20;84.40;;;;;;5036029;28;20219;-91
2022/02/23 04:01:53;;;;;;;27.80;6.30;;;6.20;84.40;;;;;;5037148;28;20183;-91
2022/02/23 04:04:19;;;;;;;36.63;6.47;;;6.10;84.60;;;;;;5037992;28;20211;-91
2022/02/23 04:06:46;;;;;;;29.03;5.97;;;6.10;84.70;;;;;;5038246;28;20181;-92
2022/02/23 04:09:13;;;;;;;34.07;6.37;;;6.10;85.00;;;;;;5036263;28;20285;-91
2022/02/23 04:11:38;;;;;;;35.93;7.67;;;6.10;85.10;;;;;;5037326;28;20258;-92
2022/02/23 04:14:05;;;;;;;27.73;6.60;;;6.10;85.30;;;;;;5036506;28;20269;-92
2022/02/23 04:16:31;;;;;;;38.43;9.17;;;6.10;85.30;;;;;;5036231;28;20196;-91
2022/02/23 04:18:56;;;;;;;35.70;7.90;;;6.10;85.20;;;;;;5035519;28;20200;-91
2022/02/23 04:21:22;;;;;;;40.30;8.57;;;6.20;85.20;;;;;;5036037;28;20184;-91
2022/02/23 04:23:48;;;;;;;33.40;6.50;;;6.20;84.90;;;;;;5037377;28;20584;-92
2022/02/23 04:26:16;;;;;;;32.97;6.40;;;6.20;85.20;;;;;;5036676;28;20259;-91
2022/02/23 04:28:42;;;;;;;31.43;5.40;;;6.20;85.20;;;;;;5036124;28;20196;-91
2022/02/23 04:31:08;;;;;;;33.77;7.30;;;6.20;85.40;;;;;;5036357;28;20623;-91
2022/02/23 04:33:35;;;;;;;28.13;6.90;;;6.10;85.60;;;;;;5036214;28;20218;-91
2022/02/23 04:36:02;;;;;;;28.43;6.43;;;6.10;85.90;;;;;;5035803;28;20204;-92
2022/02/23 04:38:27;;;;;;;38.80;7.40;;;6.10;85.90;;;;;;5036074;28;20730;-91
2022/02/23 04:40:53;;;;;;;37.90;7.00;;;6.10;85.80;;;;;;5035339;28;20215;-91
2022/02/23 04:43:19;;;;;;;29.53;6.23;;;6.10;85.40;;;;;;5035578;28;20180;-91
2022/02/23 04:45:44;;;;;;;34.50;6.57;;;6.10;85.30;;;;;;5035139;28;20207;-91
2022/02/23 04:48:10;;;;;;;35.23;7.03;;;6.10;85.30;;;;;;5035331;28;20288;-90
2022/02/23 04:50:36;;;;;;;33.07;6.70;;;6.10;85.40;;;;;;5035770;28;20244;-91
2022/02/23 04:53:02;;;;;;;38.40;7.03;;;6.10;85.30;;;;;;5035233;28;20212;-91
2022/02/23 04:55:27;;;;;;;31.60;6.97;;;6.20;85.00;;;;;;5036853;28;20183;-91
2022/02/23 04:57:53;;;;;;;39.93;7.67;;;6.10;85.30;;;;;;5035096;28;20290;-91
2022/02/23 05:00:19;;;;;;;29.97;6.53;;;6.10;85.50;;;;;;5035540;28;20193;-91
2022/02/23 05:02:44;;;;;;;36.17;7.23;;;6.10;85.80;;;;;;5035205;28;20206;-91
2022/02/23 05:05:10;;;;;;;33.77;6.77;;;6.10;86.00;;;;;;5034178;28;20214;-91
2022/02/23 05:07:36;;;;;;;36.40;7.50;;;6.10;86.30;;;;;;5035387;28;20288;-91
2022/02/23 05:10:03;;;;;;;47.93;9.73;;;6.10;86.30;;;;;;5036429;28;20204;-92
2022/02/23 05:12:28;;;;;;;41.77;8.03;;;6.10;86.40;;;;;;5035007;28;20188;-91
2022/02/23 05:14:54;;;;;;;46.10;7.07;;;6.10;86.30;;;;;;5035035;28;20711;-91
2022/02/23 05:17:19;;;;;;;44.00;8.23;;;6.10;86.50;;;;;;5035541;28;20239;-92
2022/02/23 05:19:45;;;;;;;45.37;10.17;;;6.10;86.60;;;;;;5034906;28;20633;-91
2022/02/23 05:22:11;;;;;;;34.33;7.60;;;6.00;86.70;;;;;;5034566;28;20225;-91
2022/02/23 05:24:37;;;;;;;33.40;7.13;;;6.00;86.80;;;;;;5035214;28;20187;-91
2022/02/23 05:27:04;;;;;;;32.53;7.60;;;6.00;86.80;;;;;;5035286;28;20183;-92
2022/02/23 05:29:32;;;;;;;36.00;7.43;;;6.00;86.90;;;;;;5036497;28;20184;-91
2022/02/23 05:31:58;;;;;;;40.30;8.50;;;6.00;87.00;;;;;;5034964;28;20184;-92
2022/02/23 05:34:24;;;;;;;44.97;7.97;;;6.00;87.10;;;;;;5034435;28;20188;-91
2022/02/23 05:36:50;;;;;;;37.13;8.63;;;6.00;87.10;;;;;;5035411;28;20207;-92
2022/02/23 05:39:16;;;;;;;42.57;7.63;;;5.90;87.20;;;;;;5034456;28;20206;-91
2022/02/23 05:41:42;;;;;;;34.93;8.13;;;5.90;87.30;;;;;;5034670;28;20180;-91
2022/02/23 05:44:08;;;;;;;50.27;8.97;;;5.80;87.40;;;;;;5034742;28;20180;-91
2022/02/23 05:46:34;;;;;;;41.13;7.77;;;5.80;87.50;;;;;;5035081;28;20639;-92
2022/02/23 05:49:00;;;;;;;42.07;8.17;;;5.80;87.50;;;;;;5034442;28;20246;-91
2022/02/23 05:51:36;;;;;;;43.30;7.97;;;5.80;87.60;;;;;;5034986;28;20191;-91
2022/02/23 05:54:03;;;;;;;43.23;8.20;;;5.80;87.60;;;;;;5036310;28;20297;-92
2022/02/23 05:56:29;;;;;;;45.53;8.43;;;5.80;87.60;;;;;;5035389;28;20289;-91
2022/02/23 05:58:56;;;;;;;46.23;8.27;;;5.70;87.70;;;;;;5034510;28;20241;-91
2022/02/23 06:01:22;;;;;;;42.03;8.57;;;5.70;87.60;;;;;;5034696;28;20265;-91
2022/02/23 06:03:47;;;;;;;51.50;8.93;;;5.70;87.80;;;;;;5034810;28;20189;-91
2022/02/23 06:06:13;;;;;;;43.03;8.67;;;5.70;87.80;;;;;;5035742;28;20302;-91
2022/02/23 06:08:39;;;;;;;48.13;8.90;;;5.60;87.90;;;;;;5034293;28;20681;-91
2022/02/23 06:11:05;;;;;;;49.10;8.53;;;5.60;88.00;;;;;;5033991;28;20176;-91
2022/02/23 06:13:31;;;;;;;45.10;8.47;;;5.70;87.90;;;;;;5033938;28;20176;-91
2022/02/23 06:15:58;;;;;;;35.07;8.43;;;5.70;88.00;;;;;;5035251;28;20196;-91
2022/02/23 06:18:23;;;;;;;32.60;7.37;;;5.80;88.10;;;;;;5033565;28;20279;-91
2022/02/23 06:20:54;;;;;;;47.27;8.57;;;5.70;88.10;;;;;;5033674;28;20207;-91
2022/02/23 06:23:20;;;;;;;53.20;9.17;;;5.70;88.10;;;;;;5033269;28;20167;-91
2022/02/23 06:25:46;;;;;;;43.87;8.23;;;5.70;88.10;;;;;;5036431;28;20534;-92
2022/02/23 06:28:11;;;;;;;40.88;8.32;;;5.60;88.10;;;;;;5035315;28;20436;-91
2022/02/23 06:30:38;;;;;;;43.03;8.27;;;5.70;88.00;;;;;;5033739;28;20182;-92
2022/02/23 06:33:04;;;;;;;48.20;8.73;;;5.70;87.50;;;;;;5036030;28;20179;-91
2022/02/23 06:35:29;;;;;;;40.67;8.73;;;5.70;87.60;;;;;;5033164;28;20187;-91
2022/02/23 06:37:55;;;;;;;47.53;9.57;;;5.60;87.80;;;;;;5035020;28;20559;-91
2022/02/23 06:40:20;;;;;;;36.43;7.67;;;5.60;87.90;;;;;;5035742;28;20182;-91
2022/02/23 06:42:46;;;;;;;31.83;7.50;;;5.70;87.80;;;;;;5033985;28;20185;-91
2022/02/23 06:45:12;;;;;;;34.77;7.07;;;5.70;87.80;;;;;;5035438;28;20176;-91
2022/02/23 06:47:38;;;;;;;44.27;8.73;;;5.60;87.80;;;;;;5033582;28;20206;-91
2022/02/23 06:50:04;;;;;;;37.40;7.73;;;5.60;88.00;;;;;;5035349;28;20184;-91
2022/02/23 06:52:31;;;;;;;38.60;7.70;;;5.60;88.00;;;;;;5035304;28;20177;-91
2022/02/23 06:54:58;;;;;;;40.03;8.30;;;5.60;88.20;;;;;;5034605;28;20175;-91
2022/02/23 06:57:23;;;;;;;28.10;7.30;;;5.50;88.40;;;;;;5035278;28;20199;-91
2022/02/23 06:59:49;;;;;;;36.83;7.87;;;5.50;88.50;;;;;;5035555;28;20200;-91
2022/02/23 07:02:15;;;;;;;31.43;8.00;;;5.50;88.50;;;;;;5037387;28;20226;-91
2022/02/23 07:04:44;;;;;;;41.17;7.67;;;5.50;88.40;;;;;;5037175;28;20181;-91
2022/02/23 07:07:10;;;;;;;40.27;9.53;;;5.50;88.60;;;;;;5038449;28;20185;-92
2022/02/23 07:09:35;;;;;;;34.67;6.70;;;5.50;88.80;;;;;;5038795;28;20189;-91
2022/02/23 07:12:02;;;;;;;46.70;8.73;;;5.50;88.90;;;;;;5039519;28;20178;-91
2022/02/23 07:14:28;;;;;;;38.47;8.33;;;5.50;88.70;;;;;;5038486;28;20191;-92
2022/02/23 07:16:53;;;;;;;37.33;7.53;;;5.60;88.60;;;;;;5037950;28;20207;-91
2022/02/23 07:19:20;;;;;;;44.37;8.77;;;5.60;88.60;;;;;;5039097;28;20198;-91
2022/02/23 07:21:50;;;;;;;38.17;8.00;;;5.60;88.70;;;;;;5039026;28;20183;-91
2022/02/23 07:24:16;;;;;;;41.73;8.67;;;5.60;88.70;;;;;;5038604;28;20176;-91
2022/02/23 07:26:41;;;;;;;37.37;7.77;;;5.70;88.70;;;;;;5039401;28;20184;-91
2022/02/23 07:29:07;;;;;;;33.60;7.47;;;5.70;88.50;;;;;;5038747;28;20204;-91
2022/02/23 07:31:32;;;;;;;43.57;8.33;;;5.80;88.50;;;;;;5037336;28;20564;-91
2022/02/23 07:33:58;;;;;;;43.67;8.67;;;5.80;88.40;;;;;;5039075;28;20183;-91
2022/02/23 07:36:24;;;;;;;33.30;7.87;;;5.80;88.50;;;;;;5039101;28;20213;-91
2022/02/23 07:38:51;;;;;;;49.00;9.63;;;5.90;88.20;;;;;;5038207;28;20200;-91
2022/02/23 07:41:23;;;;;;;48.23;8.43;;;5.80;88.20;;;;;;5040029;28;20276;-92
2022/02/23 07:43:52;;;;;;;34.10;7.53;;;5.80;88.40;;;;;;5041355;28;20191;-91
2022/02/23 07:46:19;;;;;;;34.40;7.60;;;5.80;88.30;;;;;;5048522;28;20424;-92
2022/02/23 07:48:47;;;;;;;37.70;7.60;;;5.90;88.30;;;;;;5050395;28;20234;-92
2022/02/23 07:51:14;;;;;;;44.07;8.40;;;5.90;88.30;;;;;;5050180;28;20642;-93
2022/02/23 07:53:41;;;;;;;23.40;6.47;;;5.90;88.10;;;;;;5051614;28;20202;-92
2022/02/23 07:56:07;;;;;;;36.07;8.60;;;5.90;87.90;;;;;;5048173;28;20303;-93
2022/02/23 07:58:32;;;;;;;38.23;6.67;;;5.90;88.00;;;;;;5046859;28;20199;-91
2022/02/23 08:00:58;;;;;;;37.53;7.50;;;5.80;88.20;;;;;;5045377;28;20571;-92
2022/02/23 08:03:24;;;;;;;40.20;8.13;;;5.80;88.20;;;;;;5044293;28;20664;-91
2022/02/23 08:05:51;;;;;;;34.10;6.90;;;5.90;88.20;;;;;;5043157;28;20177;-92
2022/02/23 08:08:18;;;;;;;45.17;9.53;;;6.00;87.80;;;;;;5043153;28;20193;-91
2022/02/23 08:10:43;;;;;;;44.27;7.73;;;6.00;87.80;;;;;;5040066;28;20180;-91
2022/02/23 08:13:10;;;;;;;49.43;8.50;;;6.10;88.10;;;;;;5038453;28;20187;-91
2022/02/23 08:21:03;;;;;;;39.37;7.63;;;6.00;87.90;;;;;;5039421;28;20186;-91
2022/02/23 08:23:29;;;;;;;24.17;6.77;;;6.00;88.10;;;;;;5041566;28;20658;-90
2022/02/23 08:25:55;;;;;;;35.03;7.80;;;6.00;88.00;;;;;;5046064;28;20273;-92
2022/02/23 08:28:20;;;;;;;24.73;7.30;;;6.10;87.70;;;;;;5052795;28;20290;-92
2022/02/23 08:30:46;;;;;;;36.33;8.73;;;6.10;87.80;;;;;;5050588;28;20194;-92
2022/02/23 08:33:14;;;;;;;30.77;6.73;;;6.20;87.90;;;;;;5048911;28;20180;-92
2022/02/23 08:35:43;;;;;;;30.10;6.23;;;6.10;87.50;;;;;;5054925;28;20208;-92
2022/02/23 08:38:18;;;;;;;31.70;6.83;;;6.10;87.90;;;;;;5056440;28;20235;-91
2022/02/23 08:40:45;;;;;;;45.73;8.93;;;6.00;88.00;;;;;;5053767;28;20178;-93
2022/02/23 08:43:11;;;;;;;33.50;7.23;;;6.00;87.90;;;;;;5047684;28;20630;-92
2022/02/23 08:45:38;;;;;;;31.10;7.33;;;6.10;87.90;;;;;;5045376;28;20187;-92
2022/02/23 08:48:06;;;;;;;26.27;5.77;;;6.10;88.00;;;;;;5052240;28;20210;-92
2022/02/23 08:50:34;;;;;;;26.60;7.13;;;6.10;88.20;;;;;;5051627;28;20180;-93
2022/02/23 08:52:59;;;;;;;46.80;8.27;;;6.10;88.00;;;;;;5046252;28;20626;-91
2022/02/23 08:55:25;;;;;;;43.77;7.47;;;6.20;88.20;;;;;;5039931;28;20199;-92
2022/02/23 08:57:52;;;;;;;42.43;7.70;;;6.20;88.20;;;;;;5041613;28;20267;-92
2022/02/23 09:00:18;;;;;;;29.90;6.67;;;6.30;88.00;;;;;;5044065;28;20192;-92
2022/02/23 09:02:43;;;;;;;31.37;5.50;;;6.40;88.00;;;;;;5045712;28;20187;-91
2022/02/23 09:05:09;;;;;;;35.07;7.97;;;6.30;87.20;;;;;;5039347;28;20183;-91
2022/02/23 09:07:35;;;;;;;30.90;6.77;;;6.30;87.70;;;;;;5035479;28;20565;-90
2022/02/23 09:10:01;;;;;;;25.70;7.00;;;6.40;87.80;;;;;;5035006;28;20180;-91
2022/02/23 09:12:27;;;;;;;32.50;8.40;;;6.50;87.80;;;;;;5041007;28;20282;-92
2022/02/23 09:14:53;;;;;;;27.80;6.87;;;6.70;87.80;;;;;;5044556;28;20584;-91
2022/02/23 09:17:19;;;;;;;24.77;6.40;;;6.80;87.80;;;;;;5045292;28;20294;-91
2022/02/23 09:19:45;;;;;;;31.93;6.53;;;6.80;87.30;;;;;;5043334;28;20180;-91
2022/02/23 09:22:10;;;;;;;32.70;8.30;;;6.80;87.20;;;;;;5041682;28;20177;-90
2022/02/23 09:24:36;;;;;;;47.83;7.80;;;6.90;87.20;;;;;;5035751;28;20181;-91
2022/02/23 09:27:02;;;;;;;44.17;7.97;;;7.10;87.40;;;;;;5046817;28;20192;-93
2022/02/23 09:29:31;;;;;;;32.63;6.90;;;7.10;86.90;;;;;;5054464;28;20244;-92
2022/02/23 09:32:03;;;;;;;25.57;7.07;;;7.10;86.90;;;;;;5058702;28;20237;-93
2022/02/23 09:34:32;;;;;;;31.03;7.87;;;7.00;86.30;;;;;;5049451;28;20180;-93
2022/02/23 09:36:57;;;;;;;30.50;6.80;;;7.10;86.20;;;;;;5046492;28;20195;-91
2022/02/23 09:39:26;;;;;;;33.97;6.73;;;7.30;86.60;;;;;;5047231;28;20267;-92
2022/02/23 09:41:59;;;;;;;36.57;7.43;;;7.30;85.70;;;;;;5050336;28;20207;-92
2022/02/23 09:44:30;;;;;;;22.63;4.93;;;7.30;85.30;;;;;;5051019;28;20200;-92
2022/02/23 09:46:57;;;;;;;33.43;6.03;;;7.50;85.60;;;;;;5051095;28;20169;-93
2022/02/23 09:49:22;;;;;;;21.67;5.53;;;7.40;85.00;;;;;;5051129;28;20193;-93
2022/02/23 09:51:51;;;;;;;26.70;5.60;;;7.40;83.70;;;;;;5045679;28;20180;-93
2022/02/23 09:54:19;;;;;;;27.13;5.60;;;7.50;84.70;;;;;;5047703;28;20203;-93
2022/02/23 09:56:51;;;;;;;34.73;7.30;;;7.60;84.60;;;;;;5045875;28;20205;-93
2022/02/23 09:59:17;;;;;;;31.30;6.67;;;7.70;84.40;;;;;;5043765;28;20212;-92
2022/02/23 10:01:47;;;;;;;28.77;6.40;;;7.80;84.00;;;;;;5043763;28;20176;-93
2022/02/23 10:04:13;;;;;;;20.57;5.10;;;7.90;83.70;;;;;;5039719;28;20607;-92
2022/02/23 10:06:49;;;;;;;30.03;6.43;;;7.90;83.60;;;;;;5036230;28;20216;-92
2022/02/23 10:09:15;;;;;;;25.13;5.47;;;7.90;83.20;;;;;;5047553;28;20292;-93
2022/02/23 10:11:50;;;;;;;22.93;6.60;;;8.00;82.80;;;;;;5049473;28;20185;-93
2022/02/23 10:14:15;;;;;;;25.60;5.63;;;8.00;82.90;;;;;;5053214;28;20251;-92
2022/02/23 10:16:49;;;;;;;26.07;5.60;;;8.00;82.20;;;;;;5047644;28;20212;-92
2022/02/23 10:19:21;;;;;;;25.13;5.57;;;8.00;81.90;;;;;;5046581;28;20199;-92
2022/02/23 10:21:59;;;;;;;30.03;6.43;;;8.20;82.80;;;;;;5046146;28;20177;-92
2022/02/23 10:24:33;;;;;;;22.77;5.63;;;8.20;81.80;;;;;;5041211;28;20243;-92
2022/02/23 10:27:06;;;;;;;27.50;5.43;;;8.30;81.80;;;;;;5043131;28;20213;-93
2022/02/23 10:29:37;;;;;;;19.63;5.03;;;8.20;81.40;;;;;;5038689;28;20157;-92
2022/02/23 10:32:11;;;;;;;33.17;8.47;;;8.30;81.20;;;;;;5038416;28;20179;-92
2022/02/23 10:35:01;;;;;;;25.63;5.90;;;8.50;80.50;;;;;;5038242;28;20659;-92
2022/02/23 10:37:28;;;;;;;24.63;6.07;;;8.50;80.80;;;;;;5036769;28;20204;-92
2022/02/23 10:40:00;;;;;;;21.60;5.47;;;8.50;79.40;;;;;;5037784;28;20188;-92
2022/02/23 10:42:33;;;;;;;14.53;4.43;;;8.70;79.20;;;;;;5041903;28;20171;-92
2022/02/23 10:45:04;;;;;;;21.47;4.53;;;8.60;79.10;;;;;;5054197;28;20160;-93
2022/02/23 10:47:33;;;;;;;21.20;4.90;;;8.60;80.10;;;;;;5051738;28;20188;-91
2022/02/23 10:50:03;;;;;;;19.33;5.00;;;8.70;80.90;;;;;;5038659;28;20481;-89
2022/02/23 10:52:34;;;;;;;24.43;5.17;;;8.80;78.70;;;;;;5037434;28;20633;-89
2022/02/23 10:55:11;;;;;;;18.83;4.43;;;8.90;78.20;;;;;;5035836;28;20287;-90
2022/02/23 10:57:47;;;;;;;16.63;4.47;;;9.00;77.10;;;;;;5036796;28;20216;-90
2022/02/23 11:00:21;;;;;;;16.50;4.53;;;9.00;77.80;;;;;;5036827;28;20188;-90
2022/02/23 11:02:48;;;;;;;18.77;4.60;;;9.00;76.50;;;;;;5035743;28;20219;-90
2022/02/23 11:05:14;;;;;;;11.93;3.30;;;9.20;78.30;;;;;;5037003;28;20176;-90
2022/02/23 11:07:43;;;;;;;16.47;4.00;;;9.20;74.90;;;;;;5036949;28;20189;-90
2022/02/23 11:10:13;;;;;;;14.97;3.80;;;9.30;76.70;;;;;;5035807;28;20180;-90
2022/02/23 11:12:42;;;;;;;16.40;4.53;;;9.30;74.90;;;;;;5037027;28;20578;-91
2022/02/23 11:15:08;;;;;;;11.00;5.90;;;9.40;74.80;;;;;;5036607;28;20219;-90
2022/02/23 11:17:35;;;;;;;24.13;5.37;;;9.40;74.80;;;;;;5036503;28;20209;-90
2022/02/23 11:20:01;;;;;;;11.20;3.20;;;9.40;73.60;;;;;;5036779;28;20164;-90
2022/02/23 11:22:28;;;;;;;14.73;4.30;;;9.20;72.50;;;;;;5036481;28;20255;-89
2022/02/23 11:24:54;;;;;;;15.63;3.70;;;9.40;73.00;;;;;;5037145;28;20210;-90
2022/02/23 11:27:23;;;;;;;24.23;5.23;;;9.40;72.40;;;;;;5036397;28;20175;-90
2022/02/23 11:30:04;;;;;;;13.73;3.37;;;9.60;73.20;;;;;;5035275;28;20181;-90
2022/02/23 11:32:38;;;;;;;17.60;3.60;;;9.70;71.90;;;;;;5036509;28;20157;-91
2022/02/23 11:35:04;;;;;;;15.00;4.07;;;9.80;71.40;;;;;;5035181;28;20179;-90
2022/02/23 11:37:33;;;;;;;12.93;3.20;;;9.30;71.10;;;;;;5034946;28;20245;-90
2022/02/23 11:40:00;;;;;;;16.30;3.20;;;9.40;72.60;;;;;;5034937;28;20179;-90
2022/02/23 11:42:26;;;;;;;21.10;3.90;;;9.60;71.70;;;;;;5036564;28;20255;-90
2022/02/23 11:45:13;;;;;;;12.83;3.77;;;9.80;70.70;;;;;;5035413;28;20629;-91
2022/02/23 11:47:49;;;;;;;11.27;3.07;;;9.90;69.70;;;;;;5036092;28;20196;-90
2022/02/23 11:50:23;;;;;;;21.57;3.83;;;9.90;70.50;;;;;;5034812;28;20176;-90
2022/02/23 11:52:53;;;;;;;15.03;3.30;;;10.10;71.60;;;;;;5035922;28;20556;-90
2022/02/23 11:55:21;;;;;;;10.93;3.27;;;10.20;69.30;;;;;;5036293;28;20331;-90
2022/02/23 11:57:48;;;;;;;16.67;3.83;;;10.20;68.40;;;;;;5034453;28;20205;-90
2022/02/23 12:00:32;;;;;;;14.00;2.77;;;10.20;71.10;;;;;;5036568;28;20176;-90
2022/02/23 12:03:10;;;;;;;11.10;2.87;;;10.30;69.10;;;;;;5036399;28;20163;-90
2022/02/23 12:05:37;;;;;;;8.83;2.50;;;10.20;67.80;;;;;;5034616;28;20655;-90
2022/02/23 12:08:04;;;;;;;14.10;3.10;;;10.00;69.80;;;;;;5035637;28;20261;-91
2022/02/23 12:10:31;;;;;;;12.53;3.43;;;10.00;66.30;;;;;;5035614;28;20227;-90
2022/02/23 12:12:58;;;;;;;7.87;3.20;;;9.90;66.90;;;;;;5035558;28;20173;-90
2022/02/23 12:15:24;;;;;;;13.70;3.53;;;10.00;66.60;;;;;;5034359;28;20178;-90
2022/02/23 12:17:59;;;;;;;7.47;2.13;;;10.10;66.40;;;;;;5035440;28;20742;-90
2022/02/23 12:20:41;;;;;;;8.80;2.73;;;10.00;67.50;;;;;;5034384;28;20165;-90
2022/02/23 12:23:19;;;;;;;8.43;2.50;;;9.80;66.00;;;;;;5035527;28;20180;-90
2022/02/23 12:25:49;;;;;;;8.53;2.67;;;9.80;67.60;;;;;;5035654;28;20207;-90
2022/02/23 12:28:20;;;;;;;15.13;3.30;;;10.10;67.70;;;;;;5035268;28;20267;-90
2022/02/23 12:30:49;;;;;;;7.23;2.37;;;10.20;65.70;;;;;;5035403;28;20195;-90
2022/02/23 12:33:16;;;;;;;6.87;2.17;;;10.00;66.00;;;;;;5033956;28;20184;-90
2022/02/23 12:35:44;;;;;;;5.20;2.30;;;10.10;66.00;;;;;;5033967;28;20181;-90
2022/02/23 12:38:10;;;;;;;10.27;2.40;;;9.90;64.90;;;;;;5035274;28;20199;-90
2022/02/23 12:40:37;;;;;;;6.13;2.10;;;9.80;68.20;;;;;;5035133;28;20180;-90
2022/02/23 12:43:05;;;;;;;7.13;3.10;;;9.80;65.70;;;;;;5033900;28;20180;-90
2022/02/23 12:45:31;;;;;;;5.03;1.77;;;9.80;66.20;;;;;;5033772;28;20179;-90
2022/02/23 12:48:01;;;;;;;13.33;2.77;;;9.80;68.30;;;;;;5033761;28;20197;-91
2022/02/23 12:50:29;;;;;;;7.60;2.20;;;10.10;67.60;;;;;;5034998;28;20654;-90